Latest Coastal Weather Observations for Warruwi

IDD60701

Issued at 2:25 pm CST Wednesday 30 July 2014 (issued every 10 minutes, with the page automatically refreshed every 10 minutes)

About coastal observations | Map of coastal stations | Coastal observations for NT | Marine services | Other Formats
Station Details ID: 014401 Name: WARRUWI AIRPORT Lat: -11.65 Lon: 133.38 Height: 19.2 m
Data from the previous 72 hours. | See also: Recent months at Warruwi
Date/Time
CST
Temp

°C
Wind Pressure Rain
since 9am
mm
Weather Cloud Vis
km
Sea
Height
m
Swell
Dir
 
Speed
knots
Gust
knots
hPa Trend Height
m
Period
s
Dir
30/02:00pm 28.0 E 10 16 1014.0 - 0.0 - - - - - - -
30/01:30pm 28.0 E 10 17 1014.4 - 0.0 - - - - - - -
30/01:00pm 27.9 E 11 15 1014.8 - 0.0 - - - - - - -
30/12:30pm 27.5 E 11 17 1015.2 - 0.0 - - - - - - -
30/12:00pm 27.2 E 9 11 1015.5 - 0.0 - - - - - - -
30/11:30am 27.5 E 8 12 1015.8 - 0.0 - - - - - - -
30/11:00am 26.8 E 11 15 1016.1 - 0.0 - - - - - - -
30/10:30am 26.4 E 9 13 1016.3 - 0.0 - - - - - - -
30/10:00am 26.0 ESE 9 14 1016.8 - 0.0 - - - - - - -
30/09:30am 25.1 ESE 10 13 1016.7 - 0.0 - - - - - - -
30/09:00am 24.6 SE 9 13 1016.6 - 0.0 - - - - - - -
30/08:30am 23.8 SE 9 12 1016.4 - 0.0 - - - - - - -
30/08:00am 23.3 SE 8 11 1016.2 - 0.0 - - - - - - -
30/07:30am 22.6 SE 5 7 1015.8 - 0.0 - - - - - - -
30/07:00am 22.0 SE 4 7 1015.7 - 0.0 - - - - - - -
30/06:30am 22.2 SE 5 7 1015.4 - 0.0 - - - - - - -
30/06:00am 22.3 SE 5 6 1015.3 - 0.0 - - - - - - -
30/05:30am 22.6 ESE 5 6 1015.2 - 0.0 - - - - - - -
30/05:00am 22.9 ESE 5 7 1015.2 - 0.0 - - - - - - -
30/04:30am 23.1 ESE 6 8 1014.8 - 0.0 - - - - - - -
30/04:00am 23.2 ESE 7 11 1014.8 - 0.0 - - - - - - -
30/03:30am 23.7 ESE 10 13 1014.6 - 0.0 - - - - - - -
30/03:00am 24.0 ESE 11 15 1014.7 - 0.0 - - - - - - -
30/02:30am 24.1 ESE 9 13 1014.9 - 0.0 - - - - - - -
30/02:00am 24.4 ESE 10 13 1015.0 - 0.0 - - - - - - -
30/01:30am 24.7 ESE 10 14 1015.0 - 0.0 - - - - - - -
30/01:00am 24.9 ESE 10 14 1015.5 - 0.0 - - - - - - -
30/12:30am 25.0 ESE 9 13 1015.6 - 0.0 - - - - - - -
30/12:00am 24.7 ESE 7 11 1015.7 - 0.0 - - - - - - -
 
Date/Time
CST
Temp

°C
Wind Pressure Rain
since 9am
mm
Weather Cloud Vis
km
Sea
Height
m
Swell
Dir
 
Speed
knots
Gust
knots
hPa Trend Height
m
Period
s
Dir
29/11:30pm 24.9 E 10 14 1015.8 - 0.0 - - - - - - -
29/11:00pm 24.9 E 9 14 1015.8 - 0.0 - - - - - - -
29/10:30pm 25.1 E 9 14 1015.7 - 0.0 - - - - - - -
29/10:00pm 25.1 E 10 14 1015.7 - 0.0 - - - - - - -
29/09:30pm 25.2 E 9 14 1015.6 - 0.0 - - - - - - -
29/09:00pm 25.4 E 9 14 1015.5 - 0.0 - - - - - - -
29/08:30pm 25.3 E 8 12 1015.3 - 0.0 - - - - - - -
29/08:00pm 25.5 E 8 13 1015.2 - 0.0 - - - - - - -
29/07:30pm 25.3 E 7 11 1014.9 - 0.0 - - - - - - -
29/07:00pm 25.3 E 9 13 1014.6 - 0.0 - - - - - - -
29/06:30pm 25.4 E 9 15 1014.2 - 0.0 - - - - - - -
29/06:00pm 25.9 E 8 13 1013.9 - 0.0 - - - - - - -
29/05:30pm 26.6 E 8 13 1013.5 - 0.0 - - - - - - -
29/05:00pm 26.9 E 10 15 1013.4 - 0.0 - - - - - - -
29/04:30pm 27.1 E 10 15 1013.2 - 0.0 - - - - - - -
29/04:00pm 26.9 ENE 10 17 1013.3 - 0.0 - - - - - - -
29/03:30pm 27.6 E 10 17 1013.3 - 0.0 - - - - - - -
29/03:00pm 26.9 E 13 18 1013.6 - 0.0 - - - - - - -
29/02:30pm 27.8 E 11 16 1014.0 - 0.0 - - - - - - -
29/02:00pm 27.4 E 15 20 1014.6 - 0.0 - - - - - - -
29/01:30pm 28.0 E 11 19 1014.9 - 0.0 - - - - - - -
29/01:00pm 27.7 E 13 19 1015.3 - 0.0 - - - - - - -
29/12:30pm 27.6 E 14 18 1015.6 - 0.0 - - - - - - -
29/12:00pm 27.4 E 10 13 1016.1 - 0.0 - - - - - - -
29/11:30am 27.7 E 10 14 1016.3 - 0.0 - - - - - - -
29/11:00am 26.9 E 11 15 1016.6 - 0.0 - - - - - - -
29/10:30am 26.4 ESE 11 15 1016.7 - 0.0 - - - - - - -
29/10:00am 26.1 ESE 11 15 1016.9 - 0.0 - - - - - - -
29/09:30am 24.8 ESE 12 16 1016.9 - 0.0 - - - - - - -
29/09:00am 24.4 ESE 11 17 1017.1 - 0.0 - - - - - - -
29/08:30am 23.6 ESE 12 16 1016.9 - 0.0 - - - - - - -
29/08:00am 23.0 ESE 10 13 1016.8 - 0.0 - - - - - - -
29/07:30am 22.3 ESE 8 12 1016.4 - 0.0 - - - - - - -
29/07:00am 22.0 ESE 10 15 1016.3 - 0.0 - - - - - - -
29/06:30am 22.1 ESE 11 15 1016.1 - 0.0 - - - - - - -
29/06:00am 22.3 ESE 12 17 1015.7 - 0.0 - - - - - - -
29/05:30am 22.4 ESE 10 16 1015.4 - 0.0 - - - - - - -
29/05:00am 22.8 ESE 10 16 1015.4 - 0.0 - - - - - - -
29/04:30am 23.0 ESE 10 15 1015.1 - 0.0 - - - - - - -
29/04:00am 23.2 ESE 9 12 1015.2 - 0.0 - - - - - - -
29/03:30am 23.6 ESE 11 16 1014.9 - 0.0 - - - - - - -
29/03:00am 23.9 ESE 11 15 1015.0 - 0.0 - - - - - - -
29/02:30am 24.2 ESE 11 17 1015.1 - 0.0 - - - - - - -
29/02:00am 24.3 ESE 10 13 1015.4 - 0.0 - - - - - - -
29/01:30am 24.7 ESE 13 18 1015.2 - 0.0 - - - - - - -
29/01:00am 24.8 ESE 11 16 1015.4 - 0.0 - - - - - - -
29/12:30am 24.8 E 11 14 1015.2 - 0.0 - - - - - - -
29/12:00am 24.8 E 9 12 1015.3 - 0.0 - - - - - - -
 
Date/Time
CST
Temp

°C
Wind Pressure Rain
since 9am
mm
Weather Cloud Vis
km
Sea
Height
m
Swell
Dir
 
Speed
knots
Gust
knots
hPa Trend Height
m
Period
s
Dir
28/11:30pm 24.8 E 10 13 1015.5 - 0.0 - - - - - - -
28/11:00pm 24.9 E 10 13 1015.5 - 0.0 - - - - - - -
28/10:30pm 25.0 E 10 14 1015.3 - 0.0 - - - - - - -
28/10:00pm 25.1 E 9 13 1015.6 - 0.0 - - - - - - -
28/09:30pm 25.1 E 9 11 1015.5 - 0.0 - - - - - - -
28/09:00pm 25.1 E 9 12 1015.4 - 0.0 - - - - - - -
28/08:30pm 25.1 E 8 11 1015.2 - 0.0 - - - - - - -
28/08:00pm 25.1 E 6 9 1015.0 - 0.0 - - - - - - -
28/07:30pm 25.1 E 6 11 1014.5 - 0.0 - - - - - - -
28/07:00pm 25.3 E 6 12 1014.2 - 0.0 - - - - - - -
28/06:30pm 25.5 E 7 11 1013.7 - 0.0 - - - - - - -
28/06:00pm 26.0 E 6 10 1013.4 - 0.0 - - - - - - -
28/05:30pm 26.2 E 9 13 1013.2 - 0.0 - - - - - - -
28/05:00pm 26.3 E 9 15 1012.9 - 0.0 - - - - - - -
28/04:30pm 26.5 E 9 13 1012.6 - 0.0 - - - - - - -
28/04:00pm 26.8 E 9 13 1012.6 - 0.0 - - - - - - -
28/03:30pm 27.5 E 9 15 1012.7 - 0.0 - - - - - - -
28/03:00pm 27.8 ENE 10 17 1013.0 - 0.0 - - - - - - -
28/02:30pm 26.9 ENE 8 13 1013.4 - 0.0 - - - - - - -
28/02:00pm 27.4 E 11 16 1014.0 - 0.0 - - - - - - -
28/01:30pm 27.9 E 11 17 1014.3 - 0.0 - - - - - - -
28/01:00pm 27.8 E 10 14 1014.9 - 0.0 - - - - - - -
28/12:30pm 29.0 E 12 17 1015.3 - 0.0 - - - - - - -
28/12:00pm 27.4 E 12 16 1015.9 - 0.0 - - - - - - -
28/11:30am 27.9 E 13 17 1016.4 - 0.0 - - - - - - -
28/11:00am 27.0 E 13 17 1016.8 - 0.0 - - - - - - -
28/10:30am 26.3 E 12 18 1016.9 - 0.0 - - - - - - -
28/10:00am 25.3 ESE 12 18 1017.1 - 0.0 - - - - - - -
28/09:30am 25.0 ESE 13 18 1017.0 - 0.0 - - - - - - -
28/09:00am 24.4 ESE 12 17 1016.9 - 0.0 - - - - - - -
28/08:30am 23.9 ESE 11 15 1016.7 - 0.0 - - - - - - -
28/08:00am 23.3 ESE 10 15 1016.7 - 0.0 - - - - - - -
28/07:30am 22.8 ESE 10 15 1016.4 - 0.0 - - - - - - -
28/07:00am 22.7 ESE 12 16 1016.0 - 0.0 - - - - - - -
28/06:30am 23.0 ESE 12 17 1015.7 - 0.0 - - - - - - -
28/06:00am 22.9 ESE 11 16 1015.4 - 0.0 - - - - - - -
28/05:30am 22.9 ESE 8 11 1015.1 - 0.0 - - - - - - -
28/05:00am 22.7 ESE 6 9 1015.1 - 0.0 - - - - - - -
28/04:30am 22.8 ESE 6 9 1015.0 - 0.0 - - - - - - -
28/04:00am 23.0 SE 8 12 1015.0 - 0.0 - - - - - - -
28/03:30am 23.4 ESE 10 15 1015.0 - 0.0 - - - - - - -
28/03:00am 23.5 ESE 9 13 1015.3 - 0.0 - - - - - - -
28/02:30am 23.9 ESE 11 17 1015.5 - 0.0 - - - - - - -
28/02:00am 24.1 ESE 8 11 1015.8 - 0.0 - - - - - - -
28/01:30am 24.4 ESE 8 13 1015.9 - 0.0 - - - - - - -
28/01:00am 24.4 ESE 7 10 1016.3 - 0.0 - - - - - - -
28/12:30am 24.4 ESE 6 8 1016.3 - 0.0 - - - - - - -
28/12:00am 24.6 ESE 6 8 1016.2 - 0.0 - - - - - - -
 
Date/Time
CST
Temp

°C
Wind Pressure Rain
since 9am
mm
Weather Cloud Vis
km
Sea
Height
m
Swell
Dir
 
Speed
knots
Gust
knots
hPa Trend Height
m
Period
s
Dir
27/11:30pm 24.7 E 6 8 1016.2 - 0.0 - - - - - - -
27/11:00pm 24.7 E 6 7 1016.3 - 0.0 - - - - - - -
27/10:30pm 24.8 E 6 7 1016.2 - 0.0 - - - - - - -
27/10:00pm 24.9 E 6 8 1016.1 - 0.0 - - - - - - -
27/09:30pm 25.0 E 5 7 1015.8 - 0.0 - - - - - - -
27/09:00pm 25.0 E 5 8 1015.6 - 0.0 - - - - - - -
27/08:30pm 24.9 E 5 7 1015.4 - 0.0 - - - - - - -
27/08:00pm 25.0 E 5 8 1015.1 - 0.0 - - - - - - -
27/07:30pm 25.1 E 5 10 1014.7 - 0.0 - - - - - - -
27/07:00pm 25.2 E 6 10 1014.5 - 0.0 - - - - - - -
27/06:30pm 25.4 E 6 8 1014.0 - 0.0 - - - - - - -
27/06:00pm 26.1 E 7 10 1013.6 - 0.0 - - - - - - -
27/05:30pm 27.2 E 7 12 1013.4 - 0.0 - - - - - - -
27/05:00pm 27.7 ENE 7 13 1013.3 - 0.0 - - - - - - -
27/04:30pm 28.3 ENE 7 11 1013.1 - 0.0 - - - - - - -
27/04:00pm 28.1 ENE 8 12 1013.4 - 0.0 - - - - - - -
27/03:30pm 28.3 ENE 10 14 1013.4 - 0.0 - - - - - - -
27/03:00pm 28.6 E 9 14 1013.6 - 0.0 - - - - - - -
27/02:30pm 28.4 E 11 17 1013.8 - 0.0 - - - - - - -

Other Formats:

Comma delimited format used in spreadsheet applications
http://www.bom.gov.au/fwo/IDD60701/IDD60701.94139.axf

JavaScript Object Notation format (JSON) in row-major order
http://www.bom.gov.au/fwo/IDD60701/IDD60701.94139.json